sensor_id;sensor_type;location;lat;lon;timestamp;P1;durP1;ratioP1;P2;durP2;ratioP2
11425;SDS011;5769;47.998;7.788;2022-07-18T00:02:02;153.70;;;34.07;;
11425;SDS011;5769;47.998;7.788;2022-07-18T00:04:29;247.87;;;42.37;;
11425;SDS011;5769;47.998;7.788;2022-07-18T00:06:55;258.80;;;43.47;;
11425;SDS011;5769;47.998;7.788;2022-07-18T00:09:23;265.27;;;47.33;;
11425;SDS011;5769;47.998;7.788;2022-07-18T00:11:51;267.53;;;44.57;;
11425;SDS011;5769;47.998;7.788;2022-07-18T00:14:18;283.77;;;60.93;;
11425;SDS011;5769;47.998;7.788;2022-07-18T00:16:46;279.37;;;53.57;;
11425;SDS011;5769;47.998;7.788;2022-07-18T00:19:12;270.00;;;46.40;;
11425;SDS011;5769;47.998;7.788;2022-07-18T00:21:40;266.53;;;44.40;;
11425;SDS011;5769;47.998;7.788;2022-07-18T00:24:06;196.63;;;36.83;;
11425;SDS011;5769;47.998;7.788;2022-07-18T00:26:34;202.20;;;37.50;;
11425;SDS011;5769;47.998;7.788;2022-07-18T00:29:01;256.03;;;43.73;;
11425;SDS011;5769;47.998;7.788;2022-07-18T00:31:28;271.60;;;53.37;;
11425;SDS011;5769;47.998;7.788;2022-07-18T00:33:54;267.20;;;50.50;;
11425;SDS011;5769;47.998;7.788;2022-07-18T00:36:21;177.17;;;34.27;;
11425;SDS011;5769;47.998;7.788;2022-07-18T00:38:48;241.83;;;42.33;;
11425;SDS011;5769;47.998;7.788;2022-07-18T00:41:14;207.30;;;38.50;;
11425;SDS011;5769;47.998;7.788;2022-07-18T00:43:43;161.90;;;33.33;;
11425;SDS011;5769;47.998;7.788;2022-07-18T00:46:09;168.23;;;36.33;;
11425;SDS011;5769;47.998;7.788;2022-07-18T00:48:37;185.20;;;34.90;;
11425;SDS011;5769;47.998;7.788;2022-07-18T00:51:03;161.07;;;33.00;;
11425;SDS011;5769;47.998;7.788;2022-07-18T00:53:30;163.37;;;33.23;;
11425;SDS011;5769;47.998;7.788;2022-07-18T00:55:57;156.47;;;33.07;;
11425;SDS011;5769;47.998;7.788;2022-07-18T00:58:25;223.37;;;39.87;;
11425;SDS011;5769;47.998;7.788;2022-07-18T01:00:53;264.17;;;45.07;;
11425;SDS011;5769;47.998;7.788;2022-07-18T01:03:37;268.50;;;44.73;;
11425;SDS011;5769;47.998;7.788;2022-07-18T01:06:04;263.37;;;44.57;;
11425;SDS011;5769;47.998;7.788;2022-07-18T01:08:31;256.20;;;43.90;;
11425;SDS011;5769;47.998;7.788;2022-07-18T01:10:58;265.37;;;44.70;;
11425;SDS011;5769;47.998;7.788;2022-07-18T01:13:25;265.27;;;44.80;;
11425;SDS011;5769;47.998;7.788;2022-07-18T01:15:53;257.43;;;44.10;;
11425;SDS011;5769;47.998;7.788;2022-07-18T01:18:19;205.93;;;38.07;;
11425;SDS011;5769;47.998;7.788;2022-07-18T01:20:47;267.93;;;44.10;;
11425;SDS011;5769;47.998;7.788;2022-07-18T01:23:14;266.50;;;43.90;;
11425;SDS011;5769;47.998;7.788;2022-07-18T01:25:41;265.33;;;43.87;;
11425;SDS011;5769;47.998;7.788;2022-07-18T01:28:08;266.57;;;43.90;;
11425;SDS011;5769;47.998;7.788;2022-07-18T01:30:34;265.83;;;43.97;;
11425;SDS011;5769;47.998;7.788;2022-07-18T01:33:02;264.53;;;44.13;;
11425;SDS011;5769;47.998;7.788;2022-07-18T01:35:29;263.27;;;43.87;;
11425;SDS011;5769;47.998;7.788;2022-07-18T01:37:58;265.03;;;43.80;;
11425;SDS011;5769;47.998;7.788;2022-07-18T01:40:26;259.07;;;44.20;;
11425;SDS011;5769;47.998;7.788;2022-07-18T01:42:53;258.17;;;44.17;;
11425;SDS011;5769;47.998;7.788;2022-07-18T01:45:21;256.70;;;44.57;;
11425;SDS011;5769;47.998;7.788;2022-07-18T01:47:48;248.53;;;44.03;;
11425;SDS011;5769;47.998;7.788;2022-07-18T01:50:15;241.53;;;41.73;;
11425;SDS011;5769;47.998;7.788;2022-07-18T01:52:42;251.90;;;44.10;;
11425;SDS011;5769;47.998;7.788;2022-07-18T01:55:10;244.73;;;42.73;;
11425;SDS011;5769;47.998;7.788;2022-07-18T01:57:38;249.37;;;44.00;;
11425;SDS011;5769;47.998;7.788;2022-07-18T02:00:06;194.13;;;36.80;;
11425;SDS011;5769;47.998;7.788;2022-07-18T02:02:36;215.47;;;41.20;;
11425;SDS011;5769;47.998;7.788;2022-07-18T02:05:03;229.93;;;46.50;;
11425;SDS011;5769;47.998;7.788;2022-07-18T02:07:31;209.10;;;43.53;;
11425;SDS011;5769;47.998;7.788;2022-07-18T02:09:59;235.03;;;42.33;;
11425;SDS011;5769;47.998;7.788;2022-07-18T02:12:29;165.10;;;31.93;;
11425;SDS011;5769;47.998;7.788;2022-07-18T02:14:56;158.37;;;34.63;;
11425;SDS011;5769;47.998;7.788;2022-07-18T02:17:22;164.57;;;33.53;;
11425;SDS011;5769;47.998;7.788;2022-07-18T02:19:49;172.23;;;34.63;;
11425;SDS011;5769;47.998;7.788;2022-07-18T02:22:16;211.77;;;39.27;;
11425;SDS011;5769;47.998;7.788;2022-07-18T02:24:43;258.27;;;44.63;;
11425;SDS011;5769;47.998;7.788;2022-07-18T02:27:09;225.53;;;42.07;;
11425;SDS011;5769;47.998;7.788;2022-07-18T02:29:37;155.20;;;35.47;;
11425;SDS011;5769;47.998;7.788;2022-07-18T02:32:04;154.93;;;35.93;;
11425;SDS011;5769;47.998;7.788;2022-07-18T02:34:31;152.87;;;36.30;;
11425;SDS011;5769;47.998;7.788;2022-07-18T02:36:58;151.73;;;36.50;;
11425;SDS011;5769;47.998;7.788;2022-07-18T02:39:25;152.07;;;36.40;;
11425;SDS011;5769;47.998;7.788;2022-07-18T02:41:51;150.40;;;36.20;;
11425;SDS011;5769;47.998;7.788;2022-07-18T02:44:18;149.60;;;36.73;;
11425;SDS011;5769;47.998;7.788;2022-07-18T02:46:46;147.60;;;37.27;;
11425;SDS011;5769;47.998;7.788;2022-07-18T02:49:13;146.53;;;36.53;;
11425;SDS011;5769;47.998;7.788;2022-07-18T02:51:52;146.77;;;36.87;;
11425;SDS011;5769;47.998;7.788;2022-07-18T02:54:20;151.77;;;35.13;;
11425;SDS011;5769;47.998;7.788;2022-07-18T02:56:48;155.23;;;34.60;;
11425;SDS011;5769;47.998;7.788;2022-07-18T02:59:14;154.13;;;33.47;;
11425;SDS011;5769;47.998;7.788;2022-07-18T03:01:41;156.27;;;34.43;;
11425;SDS011;5769;47.998;7.788;2022-07-18T03:04:09;152.03;;;33.20;;
11425;SDS011;5769;47.998;7.788;2022-07-18T03:06:36;155.13;;;34.80;;
11425;SDS011;5769;47.998;7.788;2022-07-18T03:09:03;155.57;;;35.20;;
11425;SDS011;5769;47.998;7.788;2022-07-18T03:11:30;157.20;;;34.37;;
11425;SDS011;5769;47.998;7.788;2022-07-18T03:13:57;153.23;;;33.17;;
11425;SDS011;5769;47.998;7.788;2022-07-18T03:16:23;155.10;;;34.53;;
11425;SDS011;5769;47.998;7.788;2022-07-18T03:18:50;156.77;;;34.57;;
11425;SDS011;5769;47.998;7.788;2022-07-18T03:21:18;156.43;;;35.63;;
11425;SDS011;5769;47.998;7.788;2022-07-18T03:23:45;155.73;;;36.23;;
11425;SDS011;5769;47.998;7.788;2022-07-18T03:26:12;153.77;;;34.57;;
11425;SDS011;5769;47.998;7.788;2022-07-18T03:28:39;154.90;;;33.50;;
11425;SDS011;5769;47.998;7.788;2022-07-18T03:31:06;154.03;;;35.03;;
11425;SDS011;5769;47.998;7.788;2022-07-18T03:33:32;179.50;;;35.80;;
11425;SDS011;5769;47.998;7.788;2022-07-18T03:35:59;228.07;;;42.33;;
11425;SDS011;5769;47.998;7.788;2022-07-18T03:38:27;160.40;;;33.93;;
11425;SDS011;5769;47.998;7.788;2022-07-18T03:40:54;153.40;;;34.80;;
11425;SDS011;5769;47.998;7.788;2022-07-18T03:43:20;154.97;;;34.17;;
11425;SDS011;5769;47.998;7.788;2022-07-18T03:45:47;161.57;;;35.37;;
11425;SDS011;5769;47.998;7.788;2022-07-18T03:48:14;154.43;;;35.23;;
11425;SDS011;5769;47.998;7.788;2022-07-18T03:50:40;153.90;;;33.80;;
11425;SDS011;5769;47.998;7.788;2022-07-18T03:53:07;161.47;;;35.27;;
11425;SDS011;5769;47.998;7.788;2022-07-18T03:55:35;160.40;;;35.40;;
11425;SDS011;5769;47.998;7.788;2022-07-18T03:58:02;202.33;;;36.53;;
11425;SDS011;5769;47.998;7.788;2022-07-18T04:00:29;240.00;;;41.90;;
11425;SDS011;5769;47.998;7.788;2022-07-18T04:02:56;163.53;;;33.17;;
11425;SDS011;5769;47.998;7.788;2022-07-18T04:05:22;162.27;;;33.70;;
11425;SDS011;5769;47.998;7.788;2022-07-18T04:07:49;163.73;;;35.47;;
11425;SDS011;5769;47.998;7.788;2022-07-18T04:10:15;158.33;;;35.47;;
11425;SDS011;5769;47.998;7.788;2022-07-18T04:12:47;154.60;;;35.87;;
11425;SDS011;5769;47.998;7.788;2022-07-18T04:15:14;156.23;;;35.80;;
11425;SDS011;5769;47.998;7.788;2022-07-18T04:17:41;152.63;;;34.97;;
11425;SDS011;5769;47.998;7.788;2022-07-18T04:20:08;153.77;;;35.80;;
11425;SDS011;5769;47.998;7.788;2022-07-18T04:22:43;153.13;;;36.57;;
11425;SDS011;5769;47.998;7.788;2022-07-18T04:25:11;262.33;;;44.80;;
11425;SDS011;5769;47.998;7.788;2022-07-18T04:27:38;265.13;;;44.87;;
11425;SDS011;5769;47.998;7.788;2022-07-18T04:30:07;264.43;;;44.67;;
11425;SDS011;5769;47.998;7.788;2022-07-18T04:32:34;265.67;;;44.53;;
11425;SDS011;5769;47.998;7.788;2022-07-18T04:35:01;262.10;;;44.70;;
11425;SDS011;5769;47.998;7.788;2022-07-18T04:37:29;259.87;;;44.47;;
11425;SDS011;5769;47.998;7.788;2022-07-18T04:39:56;253.50;;;44.17;;
11425;SDS011;5769;47.998;7.788;2022-07-18T04:42:23;257.03;;;44.50;;
11425;SDS011;5769;47.998;7.788;2022-07-18T04:44:49;254.93;;;44.40;;
11425;SDS011;5769;47.998;7.788;2022-07-18T04:47:17;254.23;;;44.10;;
11425;SDS011;5769;47.998;7.788;2022-07-18T04:49:44;253.03;;;44.17;;
11425;SDS011;5769;47.998;7.788;2022-07-18T04:52:11;241.17;;;42.57;;
11425;SDS011;5769;47.998;7.788;2022-07-18T04:54:38;247.13;;;43.37;;
11425;SDS011;5769;47.998;7.788;2022-07-18T04:57:04;247.57;;;43.37;;
11425;SDS011;5769;47.998;7.788;2022-07-18T04:59:31;206.33;;;37.87;;
11425;SDS011;5769;47.998;7.788;2022-07-18T05:01:58;173.37;;;34.53;;
11425;SDS011;5769;47.998;7.788;2022-07-18T05:04:26;197.70;;;35.93;;
11425;SDS011;5769;47.998;7.788;2022-07-18T05:06:53;253.57;;;44.00;;
11425;SDS011;5769;47.998;7.788;2022-07-18T05:09:20;188.93;;;36.30;;
11425;SDS011;5769;47.998;7.788;2022-07-18T05:11:47;177.87;;;34.93;;
11425;SDS011;5769;47.998;7.788;2022-07-18T05:14:14;161.33;;;36.60;;
11425;SDS011;5769;47.998;7.788;2022-07-18T05:16:40;154.67;;;32.87;;
11425;SDS011;5769;47.998;7.788;2022-07-18T05:19:07;165.03;;;32.63;;
11425;SDS011;5769;47.998;7.788;2022-07-18T05:21:35;163.53;;;32.83;;
11425;SDS011;5769;47.998;7.788;2022-07-18T05:24:02;167.50;;;33.40;;
11425;SDS011;5769;47.998;7.788;2022-07-18T05:26:29;155.53;;;35.13;;
11425;SDS011;5769;47.998;7.788;2022-07-18T05:28:56;159.93;;;33.33;;
11425;SDS011;5769;47.998;7.788;2022-07-18T05:31:22;154.50;;;33.07;;
11425;SDS011;5769;47.998;7.788;2022-07-18T05:33:49;161.47;;;33.90;;
11425;SDS011;5769;47.998;7.788;2022-07-18T05:36:16;162.97;;;34.13;;
11425;SDS011;5769;47.998;7.788;2022-07-18T05:38:44;157.00;;;34.97;;
11425;SDS011;5769;47.998;7.788;2022-07-18T05:41:11;155.00;;;35.97;;
11425;SDS011;5769;47.998;7.788;2022-07-18T05:43:37;149.10;;;35.00;;
11425;SDS011;5769;47.998;7.788;2022-07-18T05:46:05;153.97;;;34.03;;
11425;SDS011;5769;47.998;7.788;2022-07-18T05:48:32;144.97;;;37.40;;
11425;SDS011;5769;47.998;7.788;2022-07-18T05:50:59;139.90;;;36.30;;
11425;SDS011;5769;47.998;7.788;2022-07-18T05:53:25;128.87;;;24.37;;
11425;SDS011;5769;47.998;7.788;2022-07-18T05:55:53;139.97;;;33.67;;
11425;SDS011;5769;47.998;7.788;2022-07-18T05:58:20;130.07;;;26.00;;
11425;SDS011;5769;47.998;7.788;2022-07-18T06:00:47;142.13;;;36.77;;
11425;SDS011;5769;47.998;7.788;2022-07-18T06:03:14;160.37;;;32.87;;
11425;SDS011;5769;47.998;7.788;2022-07-18T06:05:41;161.40;;;34.00;;
11425;SDS011;5769;47.998;7.788;2022-07-18T06:08:07;198.60;;;37.37;;
11425;SDS011;5769;47.998;7.788;2022-07-18T06:10:34;166.57;;;32.63;;
11425;SDS011;5769;47.998;7.788;2022-07-18T06:13:02;160.53;;;33.33;;
11425;SDS011;5769;47.998;7.788;2022-07-18T06:15:29;159.93;;;33.57;;
11425;SDS011;5769;47.998;7.788;2022-07-18T06:17:56;163.63;;;34.93;;
11425;SDS011;5769;47.998;7.788;2022-07-18T06:20:22;163.33;;;34.90;;
11425;SDS011;5769;47.998;7.788;2022-07-18T06:22:49;166.67;;;33.50;;
11425;SDS011;5769;47.998;7.788;2022-07-18T06:25:16;160.93;;;34.80;;
11425;SDS011;5769;47.998;7.788;2022-07-18T06:27:43;157.70;;;34.10;;
11425;SDS011;5769;47.998;7.788;2022-07-18T06:30:12;156.50;;;35.07;;
11425;SDS011;5769;47.998;7.788;2022-07-18T06:32:39;150.37;;;36.40;;
11425;SDS011;5769;47.998;7.788;2022-07-18T06:35:06;148.57;;;36.73;;
11425;SDS011;5769;47.998;7.788;2022-07-18T06:37:33;137.63;;;32.23;;
11425;SDS011;5769;47.998;7.788;2022-07-18T06:40:00;135.80;;;32.77;;
11425;SDS011;5769;47.998;7.788;2022-07-18T06:42:27;132.60;;;29.70;;
11425;SDS011;5769;47.998;7.788;2022-07-18T06:44:54;130.43;;;26.87;;
11425;SDS011;5769;47.998;7.788;2022-07-18T06:47:22;130.07;;;26.60;;
11425;SDS011;5769;47.998;7.788;2022-07-18T06:49:48;150.27;;;35.93;;
11425;SDS011;5769;47.998;7.788;2022-07-18T06:52:15;155.50;;;35.97;;
11425;SDS011;5769;47.998;7.788;2022-07-18T06:54:42;141.27;;;36.70;;
11425;SDS011;5769;47.998;7.788;2022-07-18T06:57:08;132.87;;;29.30;;
11425;SDS011;5769;47.998;7.788;2022-07-18T06:59:35;129.67;;;24.93;;
11425;SDS011;5769;47.998;7.788;2022-07-18T07:02:02;128.17;;;24.20;;
11425;SDS011;5769;47.998;7.788;2022-07-18T07:04:31;128.17;;;24.47;;
11425;SDS011;5769;47.998;7.788;2022-07-18T07:06:58;133.97;;;28.90;;
11425;SDS011;5769;47.998;7.788;2022-07-18T07:09:24;140.13;;;34.90;;
11425;SDS011;5769;47.998;7.788;2022-07-18T07:11:51;128.87;;;24.43;;
11425;SDS011;5769;47.998;7.788;2022-07-18T07:14:18;134.07;;;29.90;;
11425;SDS011;5769;47.998;7.788;2022-07-18T07:16:44;149.90;;;37.40;;
11425;SDS011;5769;47.998;7.788;2022-07-18T07:19:11;146.27;;;36.77;;
11425;SDS011;5769;47.998;7.788;2022-07-18T07:21:40;143.50;;;37.23;;
11425;SDS011;5769;47.998;7.788;2022-07-18T07:24:07;138.90;;;35.90;;
11425;SDS011;5769;47.998;7.788;2022-07-18T07:26:33;138.03;;;35.20;;
11425;SDS011;5769;47.998;7.788;2022-07-18T07:29:00;128.40;;;24.27;;
11425;SDS011;5769;47.998;7.788;2022-07-18T07:31:27;127.30;;;25.63;;
11425;SDS011;5769;47.998;7.788;2022-07-18T07:33:54;126.33;;;24.70;;
11425;SDS011;5769;47.998;7.788;2022-07-18T07:36:20;142.53;;;31.57;;
11425;SDS011;5769;47.998;7.788;2022-07-18T07:38:49;156.63;;;35.00;;
11425;SDS011;5769;47.998;7.788;2022-07-18T07:41:15;153.40;;;35.67;;
11425;SDS011;5769;47.998;7.788;2022-07-18T07:43:42;152.47;;;35.10;;
11425;SDS011;5769;47.998;7.788;2022-07-18T07:46:08;150.87;;;36.47;;
11425;SDS011;5769;47.998;7.788;2022-07-18T07:48:36;148.20;;;37.20;;
11425;SDS011;5769;47.998;7.788;2022-07-18T07:51:04;148.47;;;36.77;;
11425;SDS011;5769;47.998;7.788;2022-07-18T07:53:30;147.27;;;36.40;;
11425;SDS011;5769;47.998;7.788;2022-07-18T07:55:58;146.50;;;36.20;;
11425;SDS011;5769;47.998;7.788;2022-07-18T07:58:25;146.50;;;37.40;;
11425;SDS011;5769;47.998;7.788;2022-07-18T08:00:52;140.80;;;36.87;;
11425;SDS011;5769;47.998;7.788;2022-07-18T08:03:19;142.93;;;36.47;;
11425;SDS011;5769;47.998;7.788;2022-07-18T08:05:46;139.20;;;36.20;;
11425;SDS011;5769;47.998;7.788;2022-07-18T08:08:14;140.67;;;36.57;;
11425;SDS011;5769;47.998;7.788;2022-07-18T08:10:42;135.30;;;32.00;;
11425;SDS011;5769;47.998;7.788;2022-07-18T08:13:11;128.93;;;24.60;;
11425;SDS011;5769;47.998;7.788;2022-07-18T08:15:38;128.20;;;24.20;;
11425;SDS011;5769;47.998;7.788;2022-07-18T08:18:06;127.93;;;24.33;;
11425;SDS011;5769;47.998;7.788;2022-07-18T08:20:32;127.53;;;24.47;;
11425;SDS011;5769;47.998;7.788;2022-07-18T08:23:00;127.43;;;24.23;;
11425;SDS011;5769;47.998;7.788;2022-07-18T08:25:36;127.33;;;24.53;;
11425;SDS011;5769;47.998;7.788;2022-07-18T08:28:04;127.43;;;24.53;;
11425;SDS011;5769;47.998;7.788;2022-07-18T08:30:33;122.30;;;24.50;;
11425;SDS011;5769;47.998;7.788;2022-07-18T08:33:00;140.80;;;27.57;;
11425;SDS011;5769;47.998;7.788;2022-07-18T08:35:27;253.80;;;44.30;;
11425;SDS011;5769;47.998;7.788;2022-07-18T08:37:54;127.07;;;24.60;;
11425;SDS011;5769;47.998;7.788;2022-07-18T08:40:21;123.20;;;24.53;;
11425;SDS011;5769;47.998;7.788;2022-07-18T08:42:48;119.20;;;24.57;;
11425;SDS011;5769;47.998;7.788;2022-07-18T08:45:18;123.67;;;25.00;;
11425;SDS011;5769;47.998;7.788;2022-07-18T08:47:47;121.17;;;24.70;;
11425;SDS011;5769;47.998;7.788;2022-07-18T08:50:14;115.33;;;24.17;;
11425;SDS011;5769;47.998;7.788;2022-07-18T08:52:41;115.40;;;24.33;;
11425;SDS011;5769;47.998;7.788;2022-07-18T08:55:08;114.97;;;24.20;;
11425;SDS011;5769;47.998;7.788;2022-07-18T08:57:35;114.47;;;24.03;;
11425;SDS011;5769;47.998;7.788;2022-07-18T09:00:02;117.30;;;24.33;;
11425;SDS011;5769;47.998;7.788;2022-07-18T09:02:29;116.13;;;24.00;;
11425;SDS011;5769;47.998;7.788;2022-07-18T09:04:57;114.53;;;24.00;;
11425;SDS011;5769;47.998;7.788;2022-07-18T09:07:27;116.50;;;24.37;;
11425;SDS011;5769;47.998;7.788;2022-07-18T09:09:56;117.80;;;24.33;;
11425;SDS011;5769;47.998;7.788;2022-07-18T09:12:24;120.67;;;24.47;;
11425;SDS011;5769;47.998;7.788;2022-07-18T09:14:52;122.83;;;24.87;;
11425;SDS011;5769;47.998;7.788;2022-07-18T09:17:19;121.57;;;24.50;;
11425;SDS011;5769;47.998;7.788;2022-07-18T09:19:59;121.93;;;24.50;;
11425;SDS011;5769;47.998;7.788;2022-07-18T09:22:28;121.97;;;24.50;;
11425;SDS011;5769;47.998;7.788;2022-07-18T09:24:56;123.03;;;24.80;;
11425;SDS011;5769;47.998;7.788;2022-07-18T09:27:30;121.17;;;24.53;;
11425;SDS011;5769;47.998;7.788;2022-07-18T09:30:12;121.27;;;24.63;;
11425;SDS011;5769;47.998;7.788;2022-07-18T09:32:48;120.20;;;24.50;;
11425;SDS011;5769;47.998;7.788;2022-07-18T09:35:19;122.13;;;24.83;;
11425;SDS011;5769;47.998;7.788;2022-07-18T09:37:51;120.80;;;24.60;;
11425;SDS011;5769;47.998;7.788;2022-07-18T09:40:20;122.63;;;24.80;;
11425;SDS011;5769;47.998;7.788;2022-07-18T09:42:49;120.50;;;24.43;;
11425;SDS011;5769;47.998;7.788;2022-07-18T09:45:21;121.30;;;24.67;;
11425;SDS011;5769;47.998;7.788;2022-07-18T09:47:52;118.53;;;24.30;;
11425;SDS011;5769;47.998;7.788;2022-07-18T09:50:23;267.63;;;44.83;;
11425;SDS011;5769;47.998;7.788;2022-07-18T09:52:56;289.33;;;57.57;;
11425;SDS011;5769;47.998;7.788;2022-07-18T09:55:23;266.17;;;44.93;;
11425;SDS011;5769;47.998;7.788;2022-07-18T09:57:56;281.30;;;53.87;;
11425;SDS011;5769;47.998;7.788;2022-07-18T10:00:24;267.07;;;47.17;;
11425;SDS011;5769;47.998;7.788;2022-07-18T10:02:59;307.27;;;75.37;;
11425;SDS011;5769;47.998;7.788;2022-07-18T10:05:28;293.10;;;63.73;;
11425;SDS011;5769;47.998;7.788;2022-07-18T10:07:56;277.77;;;49.77;;
11425;SDS011;5769;47.998;7.788;2022-07-18T10:10:23;279.33;;;54.57;;
11425;SDS011;5769;47.998;7.788;2022-07-18T10:12:51;221.53;;;39.30;;
11425;SDS011;5769;47.998;7.788;2022-07-18T10:15:20;122.00;;;24.90;;
11425;SDS011;5769;47.998;7.788;2022-07-18T10:17:48;120.10;;;24.50;;
11425;SDS011;5769;47.998;7.788;2022-07-18T10:20:16;121.27;;;24.60;;
11425;SDS011;5769;47.998;7.788;2022-07-18T10:22:43;120.63;;;24.43;;
11425;SDS011;5769;47.998;7.788;2022-07-18T10:25:12;120.67;;;24.60;;
11425;SDS011;5769;47.998;7.788;2022-07-18T10:27:49;119.00;;;24.37;;
11425;SDS011;5769;47.998;7.788;2022-07-18T10:30:18;119.33;;;24.40;;
11425;SDS011;5769;47.998;7.788;2022-07-18T10:32:56;118.70;;;24.27;;
11425;SDS011;5769;47.998;7.788;2022-07-18T10:38:24;128.03;;;24.37;;
11425;SDS011;5769;47.998;7.788;2022-07-18T10:41:00;128.13;;;24.43;;
11425;SDS011;5769;47.998;7.788;2022-07-18T10:43:39;127.90;;;24.40;;
11425;SDS011;5769;47.998;7.788;2022-07-18T10:46:08;127.87;;;24.47;;
11425;SDS011;5769;47.998;7.788;2022-07-18T10:51:30;128.90;;;24.40;;
11425;SDS011;5769;47.998;7.788;2022-07-18T10:54:06;128.23;;;24.23;;
11425;SDS011;5769;47.998;7.788;2022-07-18T10:59:35;127.20;;;24.93;;
11425;SDS011;5769;47.998;7.788;2022-07-18T11:02:04;127.90;;;24.13;;
11425;SDS011;5769;47.998;7.788;2022-07-18T11:04:34;127.57;;;24.00;;
11425;SDS011;5769;47.998;7.788;2022-07-18T11:07:04;128.80;;;24.20;;
11425;SDS011;5769;47.998;7.788;2022-07-18T11:09:39;128.77;;;24.07;;
11425;SDS011;5769;47.998;7.788;2022-07-18T11:15:09;127.90;;;27.60;;
11425;SDS011;5769;47.998;7.788;2022-07-18T11:17:56;127.60;;;24.07;;
11425;SDS011;5769;47.998;7.788;2022-07-18T11:20:35;128.03;;;24.23;;
11425;SDS011;5769;47.998;7.788;2022-07-18T11:23:13;128.33;;;24.27;;
11425;SDS011;5769;47.998;7.788;2022-07-18T11:25:42;127.77;;;24.30;;
11425;SDS011;5769;47.998;7.788;2022-07-18T11:28:09;127.07;;;24.17;;
11425;SDS011;5769;47.998;7.788;2022-07-18T11:30:37;125.53;;;24.63;;
11425;SDS011;5769;47.998;7.788;2022-07-18T11:33:05;127.73;;;24.73;;
11425;SDS011;5769;47.998;7.788;2022-07-18T11:35:45;124.63;;;24.53;;
11425;SDS011;5769;47.998;7.788;2022-07-18T11:38:12;125.80;;;24.67;;
11425;SDS011;5769;47.998;7.788;2022-07-18T11:40:46;126.63;;;24.80;;
11425;SDS011;5769;47.998;7.788;2022-07-18T11:43:19;125.33;;;24.70;;
11425;SDS011;5769;47.998;7.788;2022-07-18T11:45:46;126.93;;;24.70;;
11425;SDS011;5769;47.998;7.788;2022-07-18T11:48:19;128.27;;;24.10;;
11425;SDS011;5769;47.998;7.788;2022-07-18T11:50:46;128.23;;;24.20;;
11425;SDS011;5769;47.998;7.788;2022-07-18T11:53:13;127.43;;;24.03;;
11425;SDS011;5769;47.998;7.788;2022-07-18T11:55:40;128.13;;;24.23;;
11425;SDS011;5769;47.998;7.788;2022-07-18T11:58:09;127.80;;;24.63;;
11425;SDS011;5769;47.998;7.788;2022-07-18T12:00:37;125.83;;;24.70;;
11425;SDS011;5769;47.998;7.788;2022-07-18T12:03:08;123.23;;;24.57;;
11425;SDS011;5769;47.998;7.788;2022-07-18T12:05:36;122.00;;;24.50;;
11425;SDS011;5769;47.998;7.788;2022-07-18T12:11:07;136.17;;;26.87;;
11425;SDS011;5769;47.998;7.788;2022-07-18T12:13:43;116.67;;;24.10;;
11425;SDS011;5769;47.998;7.788;2022-07-18T12:16:28;118.33;;;24.40;;
11425;SDS011;5769;47.998;7.788;2022-07-18T12:18:58;115.07;;;24.20;;
11425;SDS011;5769;47.998;7.788;2022-07-18T12:21:38;113.13;;;24.00;;
11425;SDS011;5769;47.998;7.788;2022-07-18T12:27:09;118.87;;;24.83;;
11425;SDS011;5769;47.998;7.788;2022-07-18T12:29:57;114.77;;;24.10;;
11425;SDS011;5769;47.998;7.788;2022-07-18T12:32:37;114.63;;;24.17;;
11425;SDS011;5769;47.998;7.788;2022-07-18T12:35:16;112.90;;;23.90;;
11425;SDS011;5769;47.998;7.788;2022-07-18T12:37:52;114.60;;;24.37;;
11425;SDS011;5769;47.998;7.788;2022-07-18T12:40:20;118.80;;;24.47;;
11425;SDS011;5769;47.998;7.788;2022-07-18T12:42:47;126.47;;;25.10;;
11425;SDS011;5769;47.998;7.788;2022-07-18T12:45:16;134.63;;;29.20;;
11425;SDS011;5769;47.998;7.788;2022-07-18T12:47:42;127.83;;;24.17;;
11425;SDS011;5769;47.998;7.788;2022-07-18T12:50:09;124.67;;;24.70;;
11425;SDS011;5769;47.998;7.788;2022-07-18T12:52:36;124.93;;;24.77;;
11425;SDS011;5769;47.998;7.788;2022-07-18T12:55:02;123.77;;;24.90;;
11425;SDS011;5769;47.998;7.788;2022-07-18T12:57:30;121.40;;;24.70;;
11425;SDS011;5769;47.998;7.788;2022-07-18T12:59:56;121.70;;;24.60;;
11425;SDS011;5769;47.998;7.788;2022-07-18T13:02:24;120.20;;;24.60;;
11425;SDS011;5769;47.998;7.788;2022-07-18T13:04:51;119.17;;;24.53;;
11425;SDS011;5769;47.998;7.788;2022-07-18T13:07:18;117.73;;;24.50;;
11425;SDS011;5769;47.998;7.788;2022-07-18T13:09:44;115.93;;;24.30;;
11425;SDS011;5769;47.998;7.788;2022-07-18T13:12:11;116.37;;;24.43;;
11425;SDS011;5769;47.998;7.788;2022-07-18T13:14:37;114.53;;;24.30;;
11425;SDS011;5769;47.998;7.788;2022-07-18T13:17:04;112.20;;;24.10;;
11425;SDS011;5769;47.998;7.788;2022-07-18T13:19:32;112.20;;;24.03;;
11425;SDS011;5769;47.998;7.788;2022-07-18T13:21:59;149.53;;;30.07;;
11425;SDS011;5769;47.998;7.788;2022-07-18T13:24:26;284.23;;;49.70;;
11425;SDS011;5769;47.998;7.788;2022-07-18T13:26:53;148.83;;;28.07;;
11425;SDS011;5769;47.998;7.788;2022-07-18T13:29:20;125.50;;;24.90;;
11425;SDS011;5769;47.998;7.788;2022-07-18T13:31:47;119.40;;;24.47;;
11425;SDS011;5769;47.998;7.788;2022-07-18T13:34:16;119.30;;;24.60;;
11425;SDS011;5769;47.998;7.788;2022-07-18T13:36:46;118.40;;;24.47;;
11425;SDS011;5769;47.998;7.788;2022-07-18T13:39:14;115.17;;;24.00;;
11425;SDS011;5769;47.998;7.788;2022-07-18T13:41:41;117.20;;;24.30;;
11425;SDS011;5769;47.998;7.788;2022-07-18T13:44:08;115.70;;;24.17;;
11425;SDS011;5769;47.998;7.788;2022-07-18T13:46:35;116.57;;;24.30;;
11425;SDS011;5769;47.998;7.788;2022-07-18T13:49:01;116.10;;;24.30;;
11425;SDS011;5769;47.998;7.788;2022-07-18T13:51:28;167.50;;;30.73;;
11425;SDS011;5769;47.998;7.788;2022-07-18T13:53:56;114.93;;;23.97;;
11425;SDS011;5769;47.998;7.788;2022-07-18T13:56:23;117.37;;;24.37;;
11425;SDS011;5769;47.998;7.788;2022-07-18T13:58:49;116.47;;;24.20;;
11425;SDS011;5769;47.998;7.788;2022-07-18T14:01:16;116.13;;;24.20;;
11425;SDS011;5769;47.998;7.788;2022-07-18T14:03:42;115.90;;;24.20;;
11425;SDS011;5769;47.998;7.788;2022-07-18T14:06:09;115.43;;;24.03;;
11425;SDS011;5769;47.998;7.788;2022-07-18T14:08:36;115.17;;;24.00;;
11425;SDS011;5769;47.998;7.788;2022-07-18T14:11:04;115.90;;;24.17;;
11425;SDS011;5769;47.998;7.788;2022-07-18T14:13:32;115.73;;;24.17;;
11425;SDS011;5769;47.998;7.788;2022-07-18T14:15:59;116.53;;;24.27;;
11425;SDS011;5769;47.998;7.788;2022-07-18T14:18:26;116.30;;;24.30;;
11425;SDS011;5769;47.998;7.788;2022-07-18T14:20:52;116.37;;;24.30;;
11425;SDS011;5769;47.998;7.788;2022-07-18T14:23:19;115.47;;;24.30;;
11425;SDS011;5769;47.998;7.788;2022-07-18T14:25:47;116.37;;;24.30;;
11425;SDS011;5769;47.998;7.788;2022-07-18T14:28:14;115.10;;;24.07;;
11425;SDS011;5769;47.998;7.788;2022-07-18T14:30:41;115.03;;;24.03;;
11425;SDS011;5769;47.998;7.788;2022-07-18T14:33:08;115.60;;;24.20;;
11425;SDS011;5769;47.998;7.788;2022-07-18T14:35:34;115.70;;;24.13;;
11425;SDS011;5769;47.998;7.788;2022-07-18T14:38:01;114.47;;;24.00;;
11425;SDS011;5769;47.998;7.788;2022-07-18T14:40:28;116.43;;;24.20;;
11425;SDS011;5769;47.998;7.788;2022-07-18T14:42:54;116.33;;;24.27;;
11425;SDS011;5769;47.998;7.788;2022-07-18T14:45:23;116.30;;;24.30;;